createdAt,value
2023-05-10T00:01:03.704Z,96110.97
2023-05-10T00:03:30.546Z,96120.97
2023-05-10T00:05:57.583Z,96118.59
2023-05-10T00:08:24.248Z,96120.13
2023-05-10T00:10:51.149Z,96122.84
2023-05-10T00:13:17.930Z,96117.97
2023-05-10T00:15:44.736Z,96121.22
2023-05-10T00:18:11.594Z,96129.72
2023-05-10T00:20:38.282Z,96125.72
2023-05-10T00:23:04.881Z,96112.31
2023-05-10T00:25:31.416Z,96115.19
2023-05-10T00:27:58.332Z,96113.91
2023-05-10T00:30:25.324Z,96110.31
2023-05-10T00:32:52.797Z,96123.72
2023-05-10T00:35:19.617Z,96124.09
2023-05-10T00:37:46.347Z,96113.03
2023-05-10T00:40:13.451Z,96118.81
2023-05-10T00:42:41.792Z,96113.78
2023-05-10T00:45:09.110Z,96108.75
2023-05-10T00:47:36.359Z,96114.34
2023-05-10T00:50:03.819Z,96110.38
2023-05-10T00:52:31.277Z,96113.03
2023-05-10T00:54:59.423Z,96111.47
2023-05-10T00:57:26.290Z,96113.81
2023-05-10T00:59:53.206Z,96113.28
2023-05-10T01:02:20.036Z,96110.03
2023-05-10T01:04:47.328Z,96109.84
2023-05-10T01:07:14.115Z,96111.47
2023-05-10T01:09:41.089Z,96108.00
2023-05-10T01:12:08.524Z,96108.84
2023-05-10T01:14:37.322Z,96104.31
2023-05-10T01:17:05.909Z,96112.19
2023-05-10T01:19:36.062Z,96106.09
2023-05-10T01:22:11.547Z,96106.09
2023-05-10T01:25:10.992Z,96104.50
2023-05-10T01:27:49.454Z,96104.00
2023-05-10T01:30:31.275Z,96101.88
2023-05-10T01:33:12.688Z,96104.81
2023-05-10T01:36:08.705Z,96101.88
2023-05-10T01:38:43.960Z,96096.31
2023-05-10T01:41:21.135Z,96105.53
2023-05-10T01:44:06.731Z,96101.56
2023-05-10T01:46:38.558Z,96103.41
2023-05-10T01:49:31.959Z,96098.34
2023-05-10T01:52:10.230Z,96100.22
2023-05-10T01:54:39.658Z,96096.03
2023-05-10T01:57:09.902Z,96105.22
2023-05-10T01:59:41.909Z,96105.25
2023-05-10T02:02:12.903Z,96096.56
2023-05-10T02:04:41.795Z,96104.25
2023-05-10T02:07:10.599Z,96099.47
2023-05-10T02:09:38.638Z,96096.63
2023-05-10T02:12:06.607Z,96095.81
2023-05-10T02:14:36.490Z,96101.13
2023-05-10T02:17:06.056Z,96094.28
2023-05-10T02:19:34.770Z,96107.44
2023-05-10T02:22:02.604Z,96091.91
2023-05-10T02:24:30.004Z,96101.84
2023-05-10T02:26:57.776Z,96099.75
2023-05-10T02:29:26.164Z,96107.19
2023-05-10T02:31:56.059Z,96102.41
2023-05-10T02:34:24.320Z,96101.66
2023-05-10T02:36:53.251Z,96104.41
2023-05-10T02:39:25.889Z,96109.03
2023-05-10T02:41:54.475Z,96120.16
2023-05-10T02:44:23.612Z,96113.03
2023-05-10T02:46:50.542Z,96109.84
2023-05-10T02:49:17.362Z,96107.16
2023-05-10T02:51:51.837Z,96092.66
2023-05-10T02:54:25.442Z,96107.50
2023-05-10T02:56:57.324Z,96110.63
2023-05-10T02:59:24.226Z,96093.53
2023-05-10T03:01:50.814Z,96094.34
2023-05-10T03:04:18.673Z,96103.63
2023-05-10T03:06:45.805Z,96094.69
2023-05-10T03:09:16.245Z,96104.44
2023-05-10T03:12:03.175Z,96116.50
2023-05-10T03:14:39.808Z,96109.25
2023-05-10T03:17:35.428Z,96119.41
2023-05-10T03:20:10.754Z,96117.13
2023-05-10T03:22:48.049Z,96113.47
2023-05-10T03:25:17.527Z,96120.22
2023-05-10T03:27:45.058Z,96123.44
2023-05-10T03:30:13.676Z,96113.47
2023-05-10T03:32:40.898Z,96126.41
2023-05-10T03:35:13.364Z,96128.50
2023-05-10T03:37:40.117Z,96125.91
2023-05-10T03:40:07.208Z,96131.69
2023-05-10T03:42:36.024Z,96134.88
2023-05-10T03:45:02.576Z,96136.03
2023-05-10T03:47:30.696Z,96136.25
2023-05-10T03:49:58.846Z,96116.22
2023-05-10T03:52:25.374Z,96144.19
2023-05-10T03:54:51.941Z,96145.69
2023-05-10T03:57:19.767Z,96144.63
2023-05-10T03:59:46.394Z,96147.19
2023-05-10T04:02:12.898Z,96151.81
2023-05-10T04:04:39.537Z,96152.63
2023-05-10T04:07:06.303Z,96144.19
2023-05-10T04:09:33.674Z,96156.59
2023-05-10T04:12:01.567Z,96167.22
2023-05-10T04:14:28.049Z,96165.34
2023-05-10T04:16:54.556Z,96170.09
2023-05-10T04:19:21.428Z,96160.66
2023-05-10T04:21:47.994Z,96169.09
2023-05-10T04:24:14.491Z,96172.78
2023-05-10T04:26:40.982Z,96175.13
2023-05-10T04:29:07.664Z,96171.94
2023-05-10T04:31:35.255Z,96177.94
2023-05-10T04:34:01.831Z,96187.56
2023-05-10T04:36:28.705Z,96186.22
2023-05-10T04:38:55.472Z,96186.94
2023-05-10T04:41:21.974Z,96184.84
2023-05-10T04:43:50.427Z,96189.38
2023-05-10T04:46:17.092Z,96185.66
2023-05-10T04:48:43.576Z,96194.31
2023-05-10T04:51:10.099Z,96194.06
2023-05-10T04:53:36.818Z,96197.50
2023-05-10T04:56:03.479Z,96201.69
2023-05-10T04:58:30.083Z,96208.56
2023-05-10T05:00:56.490Z,96210.75
2023-05-10T05:03:23.450Z,96199.72
2023-05-10T05:05:50.061Z,96216.00
2023-05-10T05:08:16.654Z,96224.16
2023-05-10T05:10:43.307Z,96220.22
2023-05-10T05:13:09.768Z,96222.88
2023-05-10T05:15:36.572Z,96226.56
2023-05-10T05:18:03.162Z,96229.19
2023-05-10T05:20:33.380Z,96225.25
2023-05-10T05:22:59.919Z,96225.50
2023-05-10T05:25:26.403Z,96232.81
2023-05-10T05:27:52.858Z,96235.47
2023-05-10T05:30:19.505Z,96242.34
2023-05-10T05:32:48.028Z,96236.59
2023-05-10T05:35:14.763Z,96239.72
2023-05-10T05:37:41.351Z,96246.81
2023-05-10T05:40:08.150Z,96243.41
2023-05-10T05:42:34.672Z,96237.84
2023-05-10T05:45:01.136Z,96239.69
2023-05-10T05:47:27.675Z,96242.34
2023-05-10T05:49:54.103Z,96256.00
2023-05-10T05:52:20.610Z,96248.66
2023-05-10T05:54:47.069Z,96248.66
2023-05-10T05:57:13.589Z,96256.06
2023-05-10T05:59:44.749Z,96262.66
2023-05-10T06:02:11.972Z,96265.53
2023-05-10T06:04:39.254Z,96252.91
2023-05-10T06:07:06.364Z,96275.81
2023-05-10T06:09:32.903Z,96284.28
2023-05-10T06:11:59.346Z,96276.91
2023-05-10T06:14:26.000Z,96277.94
2023-05-10T06:16:52.507Z,96292.44
2023-05-10T06:19:19.175Z,96282.13
2023-05-10T06:21:45.694Z,96294.34
2023-05-10T06:24:12.212Z,96302.06
2023-05-10T06:26:38.626Z,96300.38
2023-05-10T06:29:05.191Z,96284.72
2023-05-10T06:31:31.743Z,96303.06
2023-05-10T06:33:58.807Z,96306.00
2023-05-10T06:36:27.291Z,96301.56
2023-05-10T06:38:53.968Z,96289.72
2023-05-10T06:41:21.590Z,96307.44
2023-05-10T06:43:49.070Z,96311.81
2023-05-10T06:46:15.792Z,96306.97
2023-05-10T06:48:42.298Z,96313.91
2023-05-10T06:51:08.738Z,96310.94
2023-05-10T06:53:35.274Z,96314.75
2023-05-10T06:56:01.761Z,96320.94
2023-05-10T06:58:28.825Z,96310.03
2023-05-10T07:00:55.326Z,96306.53
2023-05-10T07:03:21.891Z,96304.94
2023-05-10T07:05:48.419Z,96317.34
2023-05-10T07:08:15.476Z,96319.81
2023-05-10T07:10:41.974Z,96324.38
2023-05-10T07:13:08.504Z,96320.75
2023-05-10T07:15:35.163Z,96325.19
2023-05-10T07:18:02.882Z,96330.66
2023-05-10T07:20:29.417Z,96334.78
2023-05-10T07:22:55.997Z,96333.69
2023-05-10T07:25:22.449Z,96343.50
2023-05-10T07:27:49.555Z,96339.53
2023-05-10T07:30:16.231Z,96348.56
2023-05-10T07:32:43.428Z,96347.50
2023-05-10T07:35:09.936Z,96355.16
2023-05-10T07:37:36.884Z,96350.09
2023-05-10T07:40:03.553Z,96347.09
2023-05-10T07:42:30.094Z,96350.31
2023-05-10T07:44:56.604Z,96350.84
2023-05-10T07:47:23.238Z,96347.84
2023-05-10T07:49:50.041Z,96343.16
2023-05-10T07:52:16.668Z,96356.53
2023-05-10T07:54:43.244Z,96345.31
2023-05-10T07:57:09.839Z,96345.53
2023-05-10T07:59:36.594Z,96343.53
2023-05-10T08:02:03.194Z,96344.09
2023-05-10T08:04:29.762Z,96350.56
2023-05-10T08:06:56.419Z,96352.56
2023-05-10T08:09:24.952Z,96351.66
2023-05-10T08:11:51.722Z,96354.59
2023-05-10T08:14:18.338Z,96354.03
2023-05-10T08:16:44.977Z,96345.72
2023-05-10T08:19:11.447Z,96364.72
2023-05-10T08:21:38.385Z,96360.94
2023-05-10T08:24:05.777Z,96361.75
2023-05-10T08:26:33.457Z,96367.59
2023-05-10T08:29:00.178Z,96364.19
2023-05-10T08:31:26.757Z,96357.59
2023-05-10T08:33:53.708Z,96348.66
2023-05-10T08:36:25.097Z,96358.47
2023-05-10T08:38:52.870Z,96354.34
2023-05-10T08:41:21.989Z,96339.94
2023-05-10T08:43:48.821Z,96347.22
2023-05-10T08:46:20.917Z,96346.06
2023-05-10T08:48:49.057Z,96349.94
2023-05-10T08:51:19.207Z,96352.59
2023-05-10T08:53:46.777Z,96356.19
2023-05-10T08:56:13.732Z,96359.50
2023-05-10T08:58:40.455Z,96355.78
2023-05-10T09:01:08.485Z,96355.03
2023-05-10T09:03:36.182Z,96358.22
2023-05-10T09:06:02.778Z,96347.28
2023-05-10T09:08:30.373Z,96368.59
2023-05-10T09:10:57.490Z,96355.03
2023-05-10T09:13:25.561Z,96361.25
2023-05-10T09:15:52.965Z,96357.50
2023-05-10T09:18:19.735Z,96366.63
2023-05-10T09:20:46.409Z,96373.59
2023-05-10T09:23:12.885Z,96369.38
2023-05-10T09:25:39.734Z,96361.41
2023-05-10T09:28:10.595Z,96364.13
2023-05-10T09:30:37.522Z,96367.63
2023-05-10T09:33:04.493Z,96370.91
2023-05-10T09:35:34.430Z,96358.88
2023-05-10T09:38:03.891Z,96350.75
2023-05-10T09:40:31.050Z,96358.69
2023-05-10T09:43:00.318Z,96361.88
2023-05-10T09:45:36.184Z,96369.59
2023-05-10T09:48:05.095Z,96359.19
2023-05-10T09:50:31.774Z,96356.28
2023-05-10T09:53:04.490Z,96363.78
2023-05-10T09:55:37.269Z,96360.72
2023-05-10T09:58:03.845Z,96351.78
2023-05-10T10:00:36.484Z,96361.56
2023-05-10T10:03:04.269Z,96357.13
2023-05-10T10:05:36.307Z,96361.69
2023-05-10T10:08:06.333Z,96358.16
2023-05-10T10:10:34.146Z,96348.44
2023-05-10T10:13:01.132Z,96355.97
2023-05-10T10:15:28.066Z,96356.63
2023-05-10T10:17:55.002Z,96351.34
2023-05-10T10:20:23.515Z,96355.84
2023-05-10T10:22:50.396Z,96355.03
2023-05-10T10:25:19.167Z,96355.22
2023-05-10T10:27:55.145Z,96360.81
2023-05-10T10:30:31.071Z,96355.03
2023-05-10T10:33:34.924Z,96351.41
2023-05-10T10:36:03.612Z,96356.50
2023-05-10T10:38:48.523Z,96349.66
2023-05-10T10:41:32.914Z,96344.41
2023-05-10T10:44:27.530Z,96343.94
2023-05-10T10:47:13.054Z,96340.00
2023-05-10T10:49:46.576Z,96356.47
2023-05-10T10:52:24.861Z,96360.00
2023-05-10T10:55:00.302Z,96358.75
2023-05-10T10:57:27.657Z,96361.59
2023-05-10T11:00:29.401Z,96361.16
2023-05-10T11:03:01.124Z,96357.44
2023-05-10T11:05:33.720Z,96374.69
2023-05-10T11:08:01.347Z,96352.28
2023-05-10T11:10:28.290Z,96357.13
2023-05-10T11:13:06.687Z,96370.09
2023-05-10T11:15:39.022Z,96368.47
2023-05-10T11:18:24.565Z,96367.66
2023-05-10T11:21:10.369Z,96369.72
2023-05-10T11:23:45.764Z,96358.16
2023-05-10T11:26:12.857Z,96355.69
2023-05-10T11:28:45.770Z,96373.69
2023-05-10T11:31:15.698Z,96351.88
2023-05-10T11:33:46.554Z,96362.50
2023-05-10T11:36:18.238Z,96357.47
2023-05-10T11:38:45.240Z,96359.00
2023-05-10T11:41:13.266Z,96361.09
2023-05-10T11:43:40.922Z,96343.38
2023-05-10T11:46:11.428Z,96354.44
2023-05-10T11:48:40.927Z,96359.19
2023-05-10T11:51:08.700Z,96343.47
2023-05-10T11:53:35.398Z,96360.47
2023-05-10T11:56:20.027Z,96365.31
2023-05-10T11:58:48.067Z,96370.75
2023-05-10T12:01:14.757Z,96358.91
2023-05-10T12:03:41.545Z,96335.00
2023-05-10T12:06:08.771Z,96339.59
2023-05-10T12:08:35.705Z,96361.16
2023-05-10T12:11:11.277Z,96353.94
2023-05-10T12:13:42.501Z,96366.56
2023-05-10T12:16:15.488Z,96372.53
2023-05-10T12:18:43.572Z,96373.59
2023-05-10T12:21:13.758Z,96382.34
2023-05-10T12:23:40.765Z,96387.31
2023-05-10T12:26:09.632Z,96401.06
2023-05-10T12:28:36.557Z,96396.66
2023-05-10T12:31:03.972Z,96399.75
2023-05-10T12:33:43.434Z,96401.47
2023-05-10T12:36:12.200Z,96391.59
2023-05-10T12:38:44.325Z,96391.69
2023-05-10T12:41:12.801Z,96387.44
2023-05-10T12:43:40.816Z,96389.44
2023-05-10T12:46:17.969Z,96397.50
2023-05-10T12:48:46.395Z,96392.81
2023-05-10T12:51:14.184Z,96391.72
2023-05-10T12:53:42.748Z,96390.88
2023-05-10T12:56:11.152Z,96388.22
2023-05-10T12:58:37.597Z,96387.53
2023-05-10T13:01:05.135Z,96368.06
2023-05-10T13:03:31.864Z,96374.66
2023-05-10T13:05:58.495Z,96381.78
2023-05-10T13:08:25.170Z,96392.06
2023-05-10T13:10:51.701Z,96371.72
2023-05-10T13:13:19.201Z,96383.88
2023-05-10T13:15:45.770Z,96376.09
2023-05-10T13:18:12.363Z,96376.53
2023-05-10T13:20:39.200Z,96378.69
2023-05-10T13:23:05.804Z,96382.94
2023-05-10T13:25:32.384Z,96387.09
2023-05-10T13:27:59.106Z,96393.22
2023-05-10T13:30:25.616Z,96397.34
2023-05-10T13:32:52.292Z,96408.72
2023-05-10T13:35:18.937Z,96411.16
2023-05-10T13:37:45.483Z,96415.97
2023-05-10T13:40:12.548Z,96423.41
2023-05-10T13:42:39.318Z,96421.41
2023-05-10T13:45:06.492Z,96409.09
2023-05-10T13:47:33.135Z,96412.31
2023-05-10T13:49:59.767Z,96408.97
2023-05-10T13:52:26.938Z,96418.25
2023-05-10T13:54:55.892Z,96404.97
2023-05-10T13:57:24.185Z,96415.38
2023-05-10T13:59:51.342Z,96401.16
2023-05-10T14:02:18.350Z,96420.63
2023-05-10T14:04:45.178Z,96414.28
2023-05-10T14:07:12.156Z,96416.94
2023-05-10T14:09:38.686Z,96413.75
2023-05-10T14:12:05.210Z,96413.22
2023-05-10T14:14:31.824Z,96417.47
2023-05-10T14:16:58.272Z,96411.38
2023-05-10T14:19:24.804Z,96399.50
2023-05-10T14:21:52.967Z,96406.75
2023-05-10T14:24:19.539Z,96405.31
2023-05-10T14:26:46.162Z,96395.38
2023-05-10T14:29:12.856Z,96399.59
2023-05-10T14:31:39.667Z,96399.56
2023-05-10T14:34:06.687Z,96394.63
2023-05-10T14:36:33.535Z,96403.47
2023-05-10T14:39:00.385Z,96394.53
2023-05-10T14:41:26.915Z,96401.09
2023-05-10T14:43:53.572Z,96398.16
2023-05-10T14:46:20.740Z,96390.69
2023-05-10T14:48:47.509Z,96401.31
2023-05-10T14:51:14.262Z,96395.41
2023-05-10T14:53:41.181Z,96391.03
2023-05-10T14:56:08.116Z,96383.50
2023-05-10T14:58:34.759Z,96391.13
2023-05-10T15:01:01.826Z,96382.25
2023-05-10T15:03:29.229Z,96394.94
2023-05-10T15:05:58.600Z,96388.41
2023-05-10T15:08:28.732Z,96394.38
2023-05-10T15:10:56.913Z,96394.84
2023-05-10T15:13:23.521Z,96392.81
2023-05-10T15:15:49.973Z,96406.47
2023-05-10T15:18:16.640Z,96397.06
2023-05-10T15:20:43.283Z,96407.03
2023-05-10T15:23:09.778Z,96420.41
2023-05-10T15:25:38.183Z,96414.47
2023-05-10T15:28:05.225Z,96416.91
2023-05-10T15:30:31.999Z,96417.19
2023-05-10T15:32:58.961Z,96415.69
2023-05-10T15:35:26.933Z,96412.97
2023-05-10T15:37:53.538Z,96417.31
2023-05-10T15:40:20.390Z,96417.97
2023-05-10T15:42:46.925Z,96417.72
2023-05-10T15:45:13.978Z,96417.97
2023-05-10T15:47:40.622Z,96423.66
2023-05-10T15:50:07.785Z,96421.56
2023-05-10T15:52:34.681Z,96427.84
2023-05-10T15:55:01.311Z,96430.38
2023-05-10T15:57:27.906Z,96429.91
2023-05-10T15:59:54.467Z,96433.06
2023-05-10T16:02:22.578Z,96448.50
2023-05-10T16:04:49.407Z,96440.81
2023-05-10T16:07:15.952Z,96440.56
2023-05-10T16:09:42.631Z,96449.78
2023-05-10T16:12:09.225Z,96438.44
2023-05-10T16:14:35.745Z,96458.06
2023-05-10T16:17:04.990Z,96456.44
2023-05-10T16:19:31.783Z,96450.66
2023-05-10T16:21:58.345Z,96459.19
2023-05-10T16:24:25.981Z,96457.09
2023-05-10T16:26:52.515Z,96464.75
2023-05-10T16:29:19.032Z,96464.16
2023-05-10T16:31:46.315Z,96469.44
2023-05-10T16:34:12.886Z,96469.00
2023-05-10T16:36:39.362Z,96477.56
2023-05-10T16:39:05.896Z,96482.88
2023-05-10T16:41:35.395Z,96486.59
2023-05-10T16:44:03.604Z,96483.34
2023-05-10T16:46:30.275Z,96483.63
2023-05-10T16:48:56.971Z,96486.56
2023-05-10T16:51:23.532Z,96492.03
2023-05-10T16:53:49.993Z,96496.56
2023-05-10T16:56:18.357Z,96488.59
2023-05-10T16:58:44.907Z,96491.31
2023-05-10T17:01:11.361Z,96496.84
2023-05-10T17:03:38.038Z,96495.28
2023-05-10T17:06:06.095Z,96488.19
2023-05-10T17:08:33.435Z,96496.09
2023-05-10T17:11:04.005Z,96495.09
2023-05-10T17:13:31.842Z,96494.06
2023-05-10T17:15:58.561Z,96498.25
2023-05-10T17:18:26.568Z,96499.28
2023-05-10T17:20:53.242Z,96505.34
2023-05-10T17:23:19.700Z,96509.59
2023-05-10T17:25:46.313Z,96510.84
2023-05-10T17:28:12.978Z,96504.81
2023-05-10T17:30:39.573Z,96504.56
2023-05-10T17:33:06.198Z,96511.97
2023-05-10T17:35:32.760Z,96510.38
2023-05-10T17:37:59.193Z,96507.47
2023-05-10T17:40:25.983Z,96506.09
2023-05-10T17:42:52.659Z,96505.84
2023-05-10T17:45:19.565Z,96516.94
2023-05-10T17:47:46.527Z,96502.41
2023-05-10T17:50:13.174Z,96505.81
2023-05-10T17:52:39.724Z,96515.56
2023-05-10T17:55:06.834Z,96508.97
2023-05-10T17:57:33.604Z,96512.16
2023-05-10T18:00:00.243Z,96510.34
2023-05-10T18:02:26.826Z,96508.44
2023-05-10T18:04:53.492Z,96517.44
2023-05-10T18:07:21.973Z,96522.44
2023-05-10T18:09:48.488Z,96521.41
2023-05-10T18:12:14.941Z,96522.44
2023-05-10T18:14:41.864Z,96519.78
2023-05-10T18:17:09.627Z,96523.75
2023-05-10T18:19:36.377Z,96525.88
2023-05-10T18:22:03.261Z,96532.44
2023-05-10T18:24:38.989Z,96531.38
2023-05-10T18:27:07.610Z,96534.81
2023-05-10T18:29:34.245Z,96538.47
2023-05-10T18:32:00.934Z,96538.75
2023-05-10T18:34:27.489Z,96542.97
2023-05-10T18:36:54.043Z,96547.41
2023-05-10T18:39:20.630Z,96546.88
2023-05-10T18:41:47.360Z,96546.06
2023-05-10T18:44:14.533Z,96538.16
2023-05-10T18:46:42.343Z,96548.72
2023-05-10T18:49:09.261Z,96551.31
2023-05-10T18:51:36.062Z,96554.72
2023-05-10T18:54:02.665Z,96556.59
2023-05-10T18:56:29.103Z,96561.88
2023-05-10T18:58:56.036Z,96562.41
2023-05-10T19:01:22.671Z,96561.59
2023-05-10T19:03:49.213Z,96569.72
2023-05-10T19:06:15.787Z,96567.09
2023-05-10T19:08:42.390Z,96570.81
2023-05-10T19:11:09.210Z,96569.78
2023-05-10T19:13:35.849Z,96578.19
2023-05-10T19:16:07.024Z,96577.69
2023-05-10T19:18:34.018Z,96574.50
2023-05-10T19:21:04.504Z,96568.34
2023-05-10T19:23:34.820Z,96585.28
2023-05-10T19:26:01.673Z,96583.38
2023-05-10T19:28:28.477Z,96589.75
2023-05-10T19:30:55.031Z,96581.25
2023-05-10T19:33:21.490Z,96589.47
2023-05-10T19:35:51.313Z,96589.22
2023-05-10T19:38:24.215Z,96583.38
2023-05-10T19:40:57.518Z,96593.44
2023-05-10T19:43:28.381Z,96596.31
2023-05-10T19:45:57.947Z,96596.06
2023-05-10T19:48:24.805Z,96598.41
2023-05-10T19:50:52.547Z,96596.06
2023-05-10T19:53:19.208Z,96594.44
2023-05-10T19:55:46.089Z,96595.75
2023-05-10T19:58:12.614Z,96596.31
2023-05-10T20:00:39.079Z,96600.00
2023-05-10T20:03:08.424Z,96590.44
2023-05-10T20:05:35.727Z,96597.84
2023-05-10T20:08:02.170Z,96592.22
2023-05-10T20:10:28.735Z,96592.19
2023-05-10T20:12:55.131Z,96596.56
2023-05-10T20:15:23.188Z,96594.88
2023-05-10T20:17:51.292Z,96591.91
2023-05-10T20:20:18.327Z,96600.63
2023-05-10T20:22:45.808Z,96598.47
2023-05-10T20:25:13.003Z,96600.13
2023-05-10T20:27:39.574Z,96597.50
2023-05-10T20:30:06.312Z,96601.16
2023-05-10T20:32:34.266Z,96601.94
2023-05-10T20:35:01.568Z,96606.44
2023-05-10T20:37:28.661Z,96597.00
2023-05-10T20:39:55.551Z,96594.06
2023-05-10T20:42:22.933Z,96593.97
2023-05-10T20:44:52.362Z,96587.91
2023-05-10T20:47:19.159Z,96585.31
2023-05-10T20:49:46.100Z,96591.69
2023-05-10T20:52:12.695Z,96597.56
2023-05-10T20:54:39.298Z,96594.41
2023-05-10T20:57:05.853Z,96600.59
2023-05-10T20:59:32.491Z,96594.22
2023-05-10T21:01:59.300Z,96586.09
2023-05-10T21:04:26.118Z,96587.44
2023-05-10T21:06:53.255Z,96590.31
2023-05-10T21:09:19.879Z,96597.44
2023-05-10T21:11:46.600Z,96592.34
2023-05-10T21:14:13.177Z,96596.84
2023-05-10T21:16:39.810Z,96590.25
2023-05-10T21:19:07.489Z,96582.59
2023-05-10T21:21:34.541Z,96582.66
2023-05-10T21:24:01.312Z,96583.44
2023-05-10T21:26:28.681Z,96582.16
2023-05-10T21:28:55.456Z,96585.00
2023-05-10T21:31:21.987Z,96584.19
2023-05-10T21:33:48.630Z,96582.06
2023-05-10T21:36:15.122Z,96585.84
2023-05-10T21:38:44.288Z,96589.75
2023-05-10T21:41:10.969Z,96577.88
2023-05-10T21:43:37.517Z,96569.88
2023-05-10T21:46:04.103Z,96591.44
2023-05-10T21:48:30.880Z,96578.47
2023-05-10T21:50:57.389Z,96581.78
2023-05-10T21:53:23.820Z,96591.69
2023-05-10T21:55:50.458Z,96586.06
2023-05-10T21:58:16.988Z,96572.88
2023-05-10T22:18:11.986Z,96571.28
2023-05-10T22:20:38.665Z,96579.34
2023-05-10T22:23:05.507Z,96559.53
2023-05-10T22:25:32.287Z,96570.97
2023-05-10T22:27:58.814Z,96570.97
2023-05-10T22:30:25.442Z,96576.66
2023-05-10T22:32:52.004Z,96568.44
2023-05-10T22:35:18.474Z,96569.25
2023-05-10T22:37:45.040Z,96566.41
2023-05-10T22:40:11.728Z,96572.53
2023-05-10T22:42:38.425Z,96565.69
2023-05-10T22:45:05.801Z,96564.91
2023-05-10T22:47:33.576Z,96566.09
2023-05-10T22:50:03.238Z,96561.31
2023-05-10T22:52:29.930Z,96560.44
2023-05-10T22:54:56.892Z,96554.41
2023-05-10T22:57:23.400Z,96550.97
2023-05-10T22:59:49.841Z,96558.88
2023-05-10T23:02:16.628Z,96562.50
2023-05-10T23:04:43.440Z,96567.34
2023-05-10T23:07:10.219Z,96564.59
2023-05-10T23:09:36.893Z,96563.09
2023-05-10T23:12:03.599Z,96562.00
2023-05-10T23:14:30.281Z,96557.38
2023-05-10T23:16:56.900Z,96559.53
2023-05-10T23:19:24.527Z,96562.94
2023-05-10T23:21:51.167Z,96565.09
2023-05-10T23:24:17.639Z,96553.97
2023-05-10T23:26:46.335Z,96572.63
2023-05-10T23:29:12.913Z,96560.03
2023-05-10T23:31:45.216Z,96566.91
2023-05-10T23:34:12.406Z,96559.69
2023-05-10T23:36:39.354Z,96566.78
2023-05-10T23:39:06.706Z,96558.34
2023-05-10T23:41:33.360Z,96565.94
2023-05-10T23:44:00.041Z,96568.09
2023-05-10T23:46:26.807Z,96558.84
2023-05-10T23:48:53.352Z,96562.50
2023-05-10T23:51:19.830Z,96557.88
2023-05-10T23:53:46.327Z,96548.41
2023-05-10T23:56:12.849Z,96557.88
2023-05-10T23:58:39.385Z,96556.84
